createdAt,value
2019-05-21T00:00:31.696Z,16.63
2019-05-21T00:06:36.324Z,16.70
2019-05-21T00:12:40.900Z,16.71
2019-05-21T00:18:45.475Z,16.53
2019-05-21T00:24:50.409Z,16.57
2019-05-21T00:31:49.563Z,16.56
2019-05-21T00:38:51.977Z,16.59
2019-05-21T00:44:55.273Z,16.49
2019-05-21T00:50:59.846Z,16.36
2019-05-21T00:57:04.557Z,16.36
2019-05-21T01:03:09.151Z,16.44
2019-05-21T01:09:13.801Z,16.43
2019-05-21T01:15:18.434Z,16.54
2019-05-21T01:21:23.084Z,16.36
2019-05-21T01:27:27.663Z,16.50
2019-05-21T01:33:32.238Z,16.57
2019-05-21T01:39:36.804Z,16.36
2019-05-21T01:45:41.387Z,16.32
2019-05-21T01:51:46.071Z,16.25
2019-05-21T01:57:50.679Z,16.19
2019-05-21T02:03:55.297Z,16.30
2019-05-21T02:09:59.866Z,16.18
2019-05-21T02:16:04.620Z,16.36
2019-05-21T02:22:09.213Z,16.36
2019-05-21T02:28:13.819Z,16.35
2019-05-21T02:34:18.413Z,16.35
2019-05-21T02:40:23.256Z,16.17
2019-05-21T02:46:27.905Z,16.23
2019-05-21T02:52:32.489Z,16.13
2019-05-21T02:58:37.128Z,16.18
2019-05-21T03:04:41.703Z,16.13
2019-05-21T03:10:46.426Z,16.15
2019-05-21T03:16:51.056Z,16.10
2019-05-21T03:22:55.637Z,16.05
2019-05-21T03:29:00.314Z,16.23
2019-05-21T03:35:07.473Z,16.21
2019-05-21T03:41:12.036Z,16.36
2019-05-21T03:47:16.665Z,16.23
2019-05-21T03:53:21.240Z,16.38
2019-05-21T03:59:25.835Z,16.27
2019-05-21T04:05:30.497Z,16.29
2019-05-21T04:11:35.171Z,16.36
2019-05-21T04:17:56.481Z,16.28
2019-05-21T04:24:01.115Z,16.38
2019-05-21T04:30:11.188Z,16.46
2019-05-21T04:36:14.489Z,16.54
2019-05-21T04:42:19.074Z,16.70
2019-05-21T04:48:23.780Z,16.77
2019-05-21T04:54:28.345Z,16.79
2019-05-21T05:00:33.025Z,17.00
2019-05-21T05:06:37.590Z,16.64
2019-05-21T05:12:42.161Z,17.03
2019-05-21T05:18:46.730Z,16.92
2019-05-21T05:24:51.295Z,16.82
2019-05-21T05:30:57.131Z,17.02
2019-05-21T05:37:01.734Z,16.79
2019-05-21T05:43:06.290Z,16.69
2019-05-21T05:49:18.407Z,16.77
2019-05-21T05:55:23.053Z,16.83
2019-05-21T06:01:29.362Z,16.91
2019-05-21T06:07:33.934Z,17.01
2019-05-21T06:13:38.512Z,17.13
2019-05-21T06:19:43.240Z,17.16
2019-05-21T06:25:47.976Z,17.12
2019-05-21T06:31:52.535Z,17.09
2019-05-21T06:37:57.186Z,17.47
2019-05-21T06:44:01.867Z,18.17
2019-05-21T06:50:07.201Z,18.38
2019-05-21T06:56:11.765Z,18.28
2019-05-21T07:02:16.437Z,18.41
2019-05-21T07:08:34.140Z,18.20
2019-05-21T07:14:27.302Z,18.06
2019-05-21T07:20:31.863Z,17.66
2019-05-21T07:26:36.499Z,17.37
2019-05-21T07:32:41.163Z,17.23
2019-05-21T07:38:53.213Z,17.11
2019-05-21T07:44:52.203Z,16.87
2019-05-21T07:50:56.885Z,16.79
2019-05-21T07:57:01.527Z,16.58
2019-05-21T08:03:06.092Z,16.62
2019-05-21T08:09:14.442Z,16.76
2019-05-21T08:15:19.066Z,16.91
2019-05-21T08:21:23.697Z,16.96
2019-05-21T08:27:28.250Z,16.92
2019-05-21T08:33:32.828Z,16.70
2019-05-21T08:39:37.425Z,16.71
2019-05-21T08:45:42.064Z,16.67
2019-05-21T08:51:46.647Z,16.35
2019-05-21T08:58:06.338Z,16.16
2019-05-21T09:03:57.513Z,15.97
2019-05-21T09:10:02.173Z,16.06
2019-05-21T09:16:06.906Z,16.17
2019-05-21T09:22:11.916Z,16.34
2019-05-21T09:28:16.644Z,16.35
2019-05-21T09:34:23.124Z,16.56
2019-05-21T09:40:29.458Z,16.43
2019-05-21T09:46:35.024Z,16.33
2019-05-21T09:52:39.822Z,16.13
2019-05-21T09:58:46.032Z,16.10
2019-05-21T10:04:50.671Z,15.99
2019-05-21T10:10:55.375Z,15.79
2019-05-21T10:16:59.920Z,15.79
2019-05-21T10:23:04.579Z,15.69
2019-05-21T10:29:09.288Z,15.64
2019-05-21T10:35:14.029Z,15.87
2019-05-21T10:41:19.989Z,15.91
2019-05-21T10:47:24.654Z,15.87
2019-05-21T10:53:29.301Z,15.92
2019-05-21T10:59:33.998Z,16.01
2019-05-21T11:05:40.260Z,16.06
2019-05-21T11:11:45.041Z,15.92
2019-05-21T11:18:07.365Z,16.15
2019-05-21T11:23:56.096Z,16.24
2019-05-21T11:30:00.837Z,16.34
2019-05-21T11:36:08.846Z,16.41
2019-05-21T11:42:13.767Z,16.65
2019-05-21T11:48:18.507Z,16.48
2019-05-21T11:54:23.415Z,16.22
2019-05-21T12:00:29.262Z,15.77
2019-05-21T12:06:33.854Z,15.58
2019-05-21T12:12:38.412Z,15.49
2019-05-21T12:18:42.965Z,15.39
2019-05-21T12:24:47.724Z,15.61
2019-05-21T12:30:52.267Z,15.50
2019-05-21T12:36:56.911Z,15.29
2019-05-21T12:43:01.545Z,15.35
2019-05-21T12:49:06.227Z,15.30
2019-05-21T12:55:10.962Z,15.60
2019-05-21T13:01:15.512Z,15.72
2019-05-21T13:07:20.209Z,15.66
2019-05-21T13:13:24.864Z,15.73
2019-05-21T13:19:29.487Z,15.52
2019-05-21T13:25:35.022Z,15.55
2019-05-21T13:31:39.573Z,15.66
2019-05-21T13:37:44.130Z,15.65
2019-05-21T13:43:48.849Z,15.85
2019-05-21T13:49:53.385Z,15.82
2019-05-21T13:55:57.982Z,15.97
2019-05-21T14:02:02.805Z,16.09
2019-05-21T14:08:07.464Z,16.05
2019-05-21T14:14:12.176Z,15.98
2019-05-21T14:20:17.073Z,16.00
2019-05-21T14:26:21.696Z,16.16
2019-05-21T14:32:26.375Z,16.10
2019-05-21T14:38:31.070Z,15.58
2019-05-21T14:44:35.708Z,15.26
2019-05-21T14:50:40.431Z,15.12
2019-05-21T14:56:47.556Z,14.91
2019-05-21T15:02:51.452Z,15.14
2019-05-21T15:08:56.105Z,15.33
2019-05-21T15:15:00.732Z,15.39
2019-05-21T15:21:10.203Z,15.34
2019-05-21T15:27:15.473Z,15.20
2019-05-21T15:33:20.058Z,15.12
2019-05-21T15:39:24.712Z,14.96
2019-05-21T15:45:29.341Z,15.26
2019-05-21T15:51:34.151Z,15.28
2019-05-21T15:57:38.739Z,15.30
2019-05-21T16:03:43.328Z,15.33
2019-05-21T16:09:47.937Z,15.35
2019-05-21T16:15:52.516Z,15.24
2019-05-21T16:21:57.060Z,15.21
2019-05-21T16:28:01.640Z,14.89
2019-05-21T16:34:07.221Z,14.88
2019-05-21T16:40:13.263Z,14.74
2019-05-21T16:46:17.920Z,14.51
2019-05-21T16:52:23.203Z,14.47
2019-05-21T16:58:27.858Z,14.55
2019-05-21T17:04:32.592Z,14.69
2019-05-21T17:10:37.158Z,14.79
2019-05-21T17:16:41.736Z,14.80
2019-05-21T17:22:46.370Z,14.81
2019-05-21T17:28:51.057Z,14.83
2019-05-21T17:34:55.877Z,14.82
2019-05-21T17:41:00.548Z,14.83
2019-05-21T17:47:05.268Z,14.84
2019-05-21T17:53:10.071Z,14.78
2019-05-21T17:59:14.730Z,14.78
2019-05-21T18:05:20.976Z,14.73
2019-05-21T18:11:25.605Z,14.65
2019-05-21T18:17:31.115Z,14.90
2019-05-21T18:23:36.558Z,14.98
2019-05-21T18:29:41.476Z,14.94
2019-05-21T18:35:46.058Z,14.97
2019-05-21T18:41:50.735Z,15.03
2019-05-21T18:47:55.362Z,15.02
2019-05-21T18:54:00.002Z,14.87
2019-05-21T19:00:10.804Z,14.87
2019-05-21T19:06:15.661Z,14.91
2019-05-21T19:12:20.352Z,14.95
2019-05-21T19:18:25.142Z,14.90
2019-05-21T19:24:29.786Z,15.08
2019-05-21T19:30:34.485Z,14.91
2019-05-21T19:36:39.080Z,15.02
2019-05-21T19:42:54.538Z,14.78
2019-05-21T19:48:49.988Z,14.97
2019-05-21T19:54:54.715Z,14.98
2019-05-21T20:00:59.822Z,14.83
2019-05-21T20:07:06.323Z,14.91
2019-05-21T20:13:10.980Z,15.03
2019-05-21T20:19:17.844Z,14.95
2019-05-21T20:25:23.703Z,15.17
2019-05-21T20:31:28.718Z,15.29
2019-05-21T20:37:34.521Z,15.08
2019-05-21T20:43:39.667Z,15.12
2019-05-21T20:49:46.179Z,15.06
2019-05-21T20:55:51.440Z,15.13
2019-05-21T21:01:57.427Z,15.16
2019-05-21T21:08:02.730Z,15.19
2019-05-21T21:14:18.021Z,15.03
2019-05-21T21:20:15.708Z,15.04
2019-05-21T21:26:20.737Z,15.10
2019-05-21T21:32:25.538Z,14.83
2019-05-21T21:38:31.741Z,14.75
2019-05-21T21:44:37.944Z,14.91
2019-05-21T21:50:42.770Z,14.95
2019-05-21T21:56:47.467Z,14.86
2019-05-21T22:02:52.446Z,14.87
2019-05-21T22:08:58.427Z,14.85
2019-05-21T22:15:04.797Z,14.95
2019-05-21T22:21:09.569Z,14.96
2019-05-21T22:27:14.588Z,14.74
2019-05-21T22:33:19.987Z,14.88
2019-05-21T22:39:26.461Z,14.82
2019-05-21T22:45:31.372Z,14.72
2019-05-21T22:51:36.012Z,14.63
2019-05-21T22:57:40.828Z,14.65
2019-05-21T23:03:46.157Z,14.49
2019-05-21T23:09:50.752Z,14.30
2019-05-21T23:15:56.635Z,14.39
2019-05-21T23:22:01.748Z,14.39
2019-05-21T23:28:06.412Z,14.25
2019-05-21T23:34:13.515Z,14.21
2019-05-21T23:40:18.428Z,14.24
2019-05-21T23:46:23.060Z,14.10
2019-05-21T23:52:28.188Z,14.09
2019-05-21T23:58:33.638Z,14.07
